Time;durP1;ratioP1;P1;durP2;ratioP2;P2;SDS_P1;SDS_P2;PMS_P1;PMS_P2;Temp;Humidity;BMP_temperature;BMP_pressure;BME280_temperature;BME280_humidity;BME280_pressure;Samples;Min_cycle;Max_cycle;Signal;HPM_P1;HPM_P2
2022/02/23 00:00:44;;;;;;;13.43;2.83;;;;;;;6.25;72.18;102296.47;5061925;28;20098;-61
2022/02/23 00:03:10;;;;;;;25.67;3.60;;;;;;;6.31;71.71;102300.88;5048110;28;20083;-60
2022/02/23 00:05:36;;;;;;;15.73;3.20;;;;;;;6.31;71.74;102304.38;5047711;28;20104;-60
2022/02/23 00:08:02;;;;;;;23.15;3.35;;;;;;;6.37;71.62;102315.75;5047013;28;20040;-60
2022/02/23 00:10:27;;;;;;;14.75;3.63;;;;;;;6.40;71.51;102316.66;5048154;28;20027;-60
2022/02/23 00:12:52;;;;;;;15.55;2.97;;;;;;;6.36;71.75;102316.63;5047525;28;20093;-61
2022/02/23 00:15:18;;;;;;;28.13;3.33;;;;;;;6.35;71.99;102312.25;5030489;28;20021;-59
2022/02/23 00:17:44;;;;;;;21.85;3.15;;;;;;;6.38;71.71;102314.91;5048493;28;20325;-61
2022/02/23 00:20:10;;;;;;;26.13;3.47;;;;;;;6.38;71.79;102317.53;5048741;28;20112;-62
2022/02/23 00:22:35;;;;;;;26.80;3.35;;;;;;;6.39;71.74;102324.50;5029489;28;20136;-61
2022/02/23 00:25:01;;;;;;;17.92;2.70;;;;;;;6.37;71.49;102336.69;5027266;28;20029;-61
2022/02/23 00:27:27;;;;;;;23.35;2.88;;;;;;;6.40;71.68;102335.00;5026309;28;20035;-62
2022/02/23 00:29:53;;;;;;;19.95;3.47;;;;;;;6.41;71.40;102351.59;5027818;28;20017;-66
2022/02/23 00:32:19;;;;;;;19.35;2.95;;;;;;;6.39;71.68;102346.34;5028120;28;20026;-61
2022/02/23 00:34:44;;;;;;;19.70;2.83;;;;;;;6.37;71.39;102345.44;5027404;28;20026;-63
2022/02/23 00:37:10;;;;;;;24.08;3.42;;;;;;;6.36;71.83;102340.19;5026746;28;20041;-60
2022/02/23 00:39:35;;;;;;;17.90;3.47;;;;;;;6.34;71.87;102347.13;5027420;28;20021;-60
2022/02/23 00:42:00;;;;;;;15.85;2.92;;;;;;;6.36;71.92;102351.53;5038503;28;20029;-61
2022/02/23 00:44:26;;;;;;;17.40;2.85;;;;;;;6.29;72.02;102355.84;5047149;28;20307;-61
2022/02/23 00:46:51;;;;;;;18.33;2.80;;;;;;;6.31;71.76;102359.34;5045750;28;20037;-61
2022/02/23 00:49:16;;;;;;;16.67;2.92;;;;;;;6.35;71.80;102356.75;5047549;28;20049;-61
2022/02/23 00:51:42;;;;;;;16.20;2.70;;;;;;;6.35;71.76;102349.78;5046814;28;20025;-62
2022/02/23 00:54:07;;;;;;;18.38;3.67;;;;;;;6.37;71.61;102348.06;5051498;28;20021;-60
2022/02/23 00:56:33;;;;;;;17.92;3.20;;;;;;;6.36;71.39;102354.16;5054149;28;20060;-60
2022/02/23 00:58:58;;;;;;;23.52;3.20;;;;;;;6.34;71.41;102350.66;5054228;28;20111;-60
2022/02/23 01:01:24;;;;;;;21.45;3.22;;;;;;;6.29;71.85;102345.38;5053970;28;20478;-60
2022/02/23 01:03:49;;;;;;;19.83;2.50;;;;;;;6.27;71.82;102347.13;5053903;28;20070;-61
2022/02/23 01:06:15;;;;;;;14.57;2.65;;;;;;;6.24;71.92;102347.09;5054125;28;20024;-64
2022/02/23 01:08:40;;;;;;;24.95;3.05;;;;;;;6.24;71.99;102352.31;5053578;28;20025;-61
2022/02/23 01:11:05;;;;;;;13.88;3.72;;;;;;;6.16;72.53;102367.94;5051267;28;20037;-60
2022/02/23 01:13:31;;;;;;;20.33;4.25;;;;;;;6.10;72.33;102351.28;5054100;28;20562;-60
2022/02/23 01:15:56;;;;;;;18.10;3.20;;;;;;;6.07;72.64;102355.66;5052691;28;20039;-60
2022/02/23 01:18:22;;;;;;;25.33;3.45;;;;;;;6.07;72.77;102370.47;5054196;28;20021;-62
2022/02/23 01:20:48;;;;;;;26.25;2.63;;;;;;;6.07;72.56;102366.13;5052479;28;20031;-61
2022/02/23 01:23:13;;;;;;;13.25;2.60;;;;;;;6.02;72.84;102365.16;5053708;28;20100;-60
2022/02/23 01:25:39;;;;;;;20.92;2.63;;;;;;;5.93;73.38;102379.03;5054068;28;20472;-59
2022/02/23 01:28:07;;;;;;;19.50;3.25;;;;;;;5.95;73.22;102386.88;5053861;28;20029;-60
2022/02/23 01:30:33;;;;;;;17.23;2.95;;;;;;;5.93;73.66;102380.78;5054031;28;20528;-61
2022/02/23 01:32:58;;;;;;;15.40;2.40;;;;;;;5.86;73.68;102382.44;5053849;28;20116;-60
2022/02/23 01:35:24;;;;;;;18.27;2.28;;;;;;;5.82;73.70;102386.75;5053669;28;20032;-60
2022/02/23 01:37:49;;;;;;;20.48;3.42;;;;;;;5.81;73.71;102389.38;5052183;28;20138;-61
2022/02/23 01:40:15;;;;;;;24.30;3.10;;;;;;;5.78;74.07;102390.19;5033359;28;20369;-63
2022/02/23 01:42:41;;;;;;;15.95;3.47;;;;;;;5.76;74.29;102396.28;5033674;28;20190;-61
2022/02/23 01:45:07;;;;;;;25.17;2.95;;;;;;;5.73;74.60;102404.09;5033178;28;20435;-59
2022/02/23 01:47:33;;;;;;;28.10;3.55;;;;;;;5.74;74.81;102401.50;5033619;28;20080;-61
2022/02/23 01:49:58;;;;;;;21.42;3.47;;;;;;;5.77;74.76;102409.38;5032923;28;20033;-60
2022/02/23 01:52:25;;;;;;;21.63;2.78;;;;;;;5.77;74.62;102404.16;5031969;28;20148;-60
2022/02/23 01:54:54;;;;;;;21.63;2.70;;;;;;;5.76;74.89;102402.41;5033101;28;20025;-61
2022/02/23 01:57:20;;;;;;;;;;;;;;;5.68;75.10;102407.53;5033879;28;20108;-60
2022/02/23 01:59:45;;;;;;;16.85;3.10;;;;;;;5.68;74.89;102404.91;5033529;28;20004;-59
2022/02/23 02:04:39;;;;;;;27.65;2.88;;;;;;;5.71;74.75;102421.50;5075920;23;20061;-60
2022/02/23 02:07:04;;;;;;;17.95;3.17;;;;;;;5.75;74.22;102411.09;5050164;28;20032;-61
2022/02/23 02:09:29;;;;;;;15.55;2.40;;;;;;;5.78;74.38;102424.22;5068389;28;20115;-63
2022/02/23 02:11:55;;;;;;;17.35;2.72;;;;;;;5.79;74.38;102425.09;5068319;28;20082;-60
2022/02/23 02:14:20;;;;;;;14.20;2.92;;;;;;;5.75;74.58;102426.78;5049979;28;20067;-63
2022/02/23 02:16:45;;;;;;;17.42;2.72;;;;;;;5.75;74.71;102432.00;5049117;28;20032;-61
2022/02/23 02:19:11;;;;;;;14.98;2.50;;;;;;;5.75;75.12;102434.63;5049198;28;20029;-60
2022/02/23 02:21:56;;;;;;;15.15;3.28;;;;;;;5.79;74.57;102435.56;5048600;28;20025;-60
2022/02/23 02:24:23;;;;;;;16.58;2.53;;;;;;;5.72;74.92;102439.81;5049872;28;20076;-60
2022/02/23 02:26:48;;;;;;;20.58;3.05;;;;;;;5.71;75.09;102440.69;5049387;28;20020;-60
2022/02/23 02:29:14;;;;;;;18.17;3.08;;;;;;;5.79;74.72;102432.94;5050096;28;20033;-60
2022/02/23 02:31:39;;;;;;;30.25;3.95;;;;;;;5.75;74.71;102432.00;5050089;28;20371;-60
2022/02/23 02:34:04;;;;;;;20.15;3.22;;;;;;;5.73;75.12;102425.00;5048910;28;20033;-62
2022/02/23 02:36:30;;;;;;;20.65;2.97;;;;;;;5.74;74.81;102430.25;5048454;28;20060;-61
2022/02/23 02:38:55;;;;;;;16.55;2.70;;;;;;;5.74;74.93;102426.75;5050418;28;20025;-61
2022/02/23 02:41:20;;;;;;;13.93;2.58;;;;;;;5.69;74.96;102429.34;5053525;28;20040;-62
2022/02/23 02:43:46;;;;;;;15.65;2.90;;;;;;;5.66;75.09;102427.56;5047970;28;20033;-61
2022/02/23 02:46:11;;;;;;;19.25;3.50;;;;;;;5.65;75.39;102433.66;5047626;28;20045;-61
2022/02/23 02:48:36;;;;;;;19.83;3.30;;;;;;;5.60;75.50;102439.69;5048022;28;20032;-60
2022/02/23 02:51:02;;;;;;;28.50;3.72;;;;;;;5.60;75.53;102437.06;5046427;28;20072;-62
2022/02/23 02:53:27;;;;;;;15.50;2.58;;;;;;;5.60;75.41;102447.53;5046673;28;20025;-59
2022/02/23 02:55:52;;;;;;;21.08;3.45;;;;;;;5.55;75.55;102450.97;5046979;28;20402;-61
2022/02/23 02:58:18;;;;;;;18.15;2.88;;;;;;;5.55;75.72;102448.34;5049747;28;20467;-61
2022/02/23 03:00:43;;;;;;;20.20;3.10;;;;;;;5.55;75.85;102450.09;5046661;28;20479;-60
2022/02/23 03:03:08;;;;;;;18.38;2.88;;;;;;;5.51;76.06;102450.91;5050621;28;20553;-61
2022/02/23 03:05:34;;;;;;;16.42;3.15;;;;;;;5.44;76.21;102449.94;5068209;28;20320;-60
2022/02/23 03:07:59;;;;;;;14.90;2.40;;;;;;;5.47;76.05;102452.59;5067861;28;20067;-61
2022/02/23 03:10:25;;;;;;;20.35;2.83;;;;;;;5.42;76.38;102451.66;5068160;28;20056;-61
2022/02/23 03:12:50;;;;;;;15.45;3.15;;;;;;;5.40;76.34;102453.38;5067322;28;20028;-61
2022/02/23 03:15:16;;;;;;;19.35;2.65;;;;;;;5.33;76.99;102459.38;5067530;28;20064;-61
2022/02/23 03:17:42;;;;;;;21.85;3.95;;;;;;;5.31;77.21;102468.06;5069015;28;20525;-60
2022/02/23 03:20:08;;;;;;;20.70;3.08;;;;;;;5.26;77.62;102467.13;5068667;28;20085;-61
2022/02/23 03:22:37;;;;;;;17.63;3.05;;;;;;;5.23;77.70;102468.78;5050609;28;20040;-61
2022/02/23 03:25:04;;;;;;;19.17;2.90;;;;;;;5.15;78.21;102471.31;5048489;28;20025;-60
2022/02/23 03:27:29;;;;;;;16.75;3.67;;;;;;;5.08;78.47;102472.94;5048156;28;20100;-61
2022/02/23 03:29:55;;;;;;;23.45;3.08;;;;;;;5.02;78.86;102481.56;5048453;28;20116;-63
2022/02/23 03:32:20;;;;;;;17.13;2.83;;;;;;;4.98;78.80;102486.72;5047839;28;20028;-62
2022/02/23 03:34:45;;;;;;;22.25;3.80;;;;;;;4.94;79.22;102483.19;5047882;28;20067;-60
2022/02/23 03:37:11;;;;;;;23.58;2.95;;;;;;;4.91;79.26;102478.78;5047794;28;20028;-60
2022/02/23 03:39:36;;;;;;;21.33;3.22;;;;;;;4.90;79.52;102481.34;5046159;28;20013;-60
2022/02/23 03:42:01;;;;;;;27.20;3.63;;;;;;;4.86;79.70;102474.34;5047842;28;20379;-61
2022/02/23 03:44:27;;;;;;;21.67;3.75;;;;;;;4.83;80.03;102479.50;5048649;28;20021;-62
2022/02/23 03:46:52;;;;;;;25.48;3.28;;;;;;;4.78;80.52;102477.69;5046554;28;20028;-62
2022/02/23 03:49:18;;;;;;;24.75;3.05;;;;;;;4.75;80.58;102487.19;5047588;28;20063;-62
2022/02/23 03:51:43;;;;;;;32.30;3.42;;;;;;;4.69;81.04;102490.59;5064051;28;20036;-60
2022/02/23 03:54:08;;;;;;;18.00;2.60;;;;;;;4.65;81.37;102496.63;5067654;28;20386;-62
2022/02/23 03:56:40;;;;;;;14.45;2.67;;;;;;;4.63;81.80;102493.09;5066809;28;20055;-62
2022/02/23 03:59:08;;;;;;;23.35;3.42;;;;;;;4.54;81.90;102499.91;5068023;28;20023;-61
2022/02/23 04:01:33;;;;;;;23.52;3.05;;;;;;;4.51;82.28;102497.25;5067443;28;20107;-62
2022/02/23 04:04:02;;;;;;;21.00;2.90;;;;;;;4.46;82.41;102501.53;5067342;28;20135;-61
2022/02/23 04:06:28;;;;;;;23.52;2.75;;;;;;;4.48;82.41;102506.78;5067264;28;20071;-62
2022/02/23 04:08:53;;;;;;;21.58;3.15;;;;;;;4.47;82.54;102498.06;5068091;28;20059;-62
2022/02/23 04:11:19;;;;;;;23.02;3.53;;;;;;;4.41;82.76;102496.22;5066134;28;20024;-61
2022/02/23 04:13:44;;;;;;;20.65;2.92;;;;;;;4.41;82.56;102509.25;5066006;28;20118;-63
2022/02/23 04:16:10;;;;;;;23.58;3.60;;;;;;;4.35;82.72;102509.16;5067497;28;20056;-61
2022/02/23 04:18:35;;;;;;;31.10;5.00;;;;;;;4.31;83.08;102504.72;5065275;28;20024;-62
2022/02/23 04:21:00;;;;;;;18.95;3.40;;;;;;;4.25;82.94;102510.69;5046804;28;20033;-61
2022/02/23 04:23:26;;;;;;;20.52;3.13;;;;;;;4.24;83.18;102508.94;5047044;28;20021;-61
2022/02/23 04:25:51;;;;;;;22.10;2.85;;;;;;;4.22;82.95;102513.25;5046719;28;20025;-61
2022/02/23 04:28:16;;;;;;;27.50;3.60;;;;;;;4.18;83.31;102516.63;5047152;28;20148;-61
2022/02/23 04:30:42;;;;;;;21.35;2.63;;;;;;;4.15;83.17;102516.56;5047866;28;20061;-60
2022/02/23 04:33:07;;;;;;;23.85;3.10;;;;;;;4.09;83.33;102524.28;5047367;28;20033;-60
2022/02/23 04:35:32;;;;;;;22.65;3.72;;;;;;;4.12;83.80;102519.16;5047605;28;20110;-61
2022/02/23 04:37:57;;;;;;;36.15;3.67;;;;;;;4.12;83.79;102519.16;5046057;28;20064;-60
2022/02/23 04:40:23;;;;;;;26.58;3.17;;;;;;;4.16;83.78;102516.59;5047254;28;20031;-62
2022/02/23 04:42:48;;;;;;;17.42;3.00;;;;;;;4.16;83.69;102518.34;5046363;28;20044;-60
2022/02/23 04:45:14;;;;;;;18.52;3.20;;;;;;;4.12;83.59;102519.16;5047217;28;20031;-60
2022/02/23 04:47:39;;;;;;;24.40;3.33;;;;;;;4.14;83.60;102525.25;5046600;28;20013;-60
2022/02/23 04:50:05;;;;;;;23.27;3.60;;;;;;;4.16;83.77;102521.81;5046680;28;20041;-61
2022/02/23 04:52:30;;;;;;;20.58;3.35;;;;;;;4.20;83.54;102514.94;5045347;28;20033;-61
2022/02/23 04:54:56;;;;;;;28.63;3.22;;;;;;;4.18;83.46;102527.06;5047435;28;20017;-62
2022/02/23 04:57:22;;;;;;;16.98;2.60;;;;;;;4.21;83.19;102529.75;5046557;28;20025;-61
2022/02/23 04:59:48;;;;;;;20.95;2.97;;;;;;;4.21;82.96;102532.34;5047029;28;20028;-60
2022/02/23 05:02:13;;;;;;;27.45;3.47;;;;;;;4.17;83.18;102531.44;5046907;28;20474;-60
2022/02/23 05:04:38;;;;;;;25.85;3.83;;;;;;;4.16;83.16;102527.03;5044633;28;20041;-60
2022/02/23 05:07:04;;;;;;;29.60;4.13;;;;;;;4.14;83.13;102530.47;5050614;28;20067;-61
2022/02/23 05:09:29;;;;;;;24.63;3.08;;;;;;;4.13;83.32;102531.31;5067388;28;20509;-62
2022/02/23 05:11:54;;;;;;;25.25;3.92;;;;;;;4.17;83.38;102530.53;5066943;28;20097;-63
2022/02/23 05:14:20;;;;;;;21.02;3.30;;;;;;;4.19;83.09;102534.06;5066987;28;20471;-62
2022/02/23 05:16:46;;;;;;;23.38;3.22;;;;;;;4.14;83.08;102527.84;5067230;28;20036;-62
2022/02/23 05:19:11;;;;;;;22.17;3.38;;;;;;;4.13;83.14;102539.16;5067886;28;20025;-62
2022/02/23 05:21:36;;;;;;;24.80;3.45;;;;;;;4.07;82.85;102544.25;5066128;28;20039;-61
2022/02/23 05:24:02;;;;;;;20.48;3.38;;;;;;;4.04;83.35;102551.13;5067695;28;20020;-61
2022/02/23 05:26:27;;;;;;;20.88;3.45;;;;;;;4.06;83.35;102550.31;5067165;28;20028;-62
2022/02/23 05:28:52;;;;;;;32.78;3.08;;;;;;;4.01;83.42;102553.69;5066682;28;20013;-61
2022/02/23 05:31:18;;;;;;;21.45;3.80;;;;;;;4.02;83.17;102555.47;5067250;28;20044;-62
2022/02/23 05:33:43;;;;;;;26.45;2.97;;;;;;;4.01;83.01;102550.22;5067364;28;20505;-62
2022/02/23 05:36:08;;;;;;;23.08;3.22;;;;;;;4.04;82.93;102548.53;5065838;28;20025;-62
2022/02/23 05:38:34;;;;;;;22.25;4.18;;;;;;;4.02;83.10;102554.56;5067118;28;20021;-62
2022/02/23 05:41:02;;;;;;;24.13;3.55;;;;;;;4.02;83.07;102559.78;5068785;28;20021;-62
2022/02/23 05:43:27;;;;;;;16.00;2.65;;;;;;;3.97;82.94;102564.91;5070801;28;20112;-61
2022/02/23 05:45:52;;;;;;;18.30;3.72;;;;;;;3.94;83.10;102562.22;5057519;28;20104;-61
2022/02/23 05:48:17;;;;;;;22.73;4.07;;;;;;;3.94;83.24;102559.63;5050742;28;20053;-62
2022/02/23 05:50:44;;;;;;;23.60;3.28;;;;;;;3.91;83.31;102568.25;5049961;28;20025;-63
2022/02/23 05:53:10;;;;;;;18.88;3.30;;;;;;;3.85;83.31;102569.88;5051180;28;20435;-62
2022/02/23 05:55:35;;;;;;;20.08;3.30;;;;;;;3.78;83.54;102569.72;5050673;28;20098;-61
2022/02/23 05:58:01;;;;;;;21.92;2.65;;;;;;;3.74;83.65;102573.13;5050345;28;20021;-61
2022/02/23 06:00:26;;;;;;;28.40;3.78;;;;;;;3.70;83.96;102563.44;5049604;28;20045;-61
2022/02/23 06:02:51;;;;;;;23.92;4.35;;;;;;;3.60;84.18;102564.09;5049923;28;20483;-62
2022/02/23 06:05:17;;;;;;;23.13;3.75;;;;;;;3.57;84.21;102570.13;5049181;28;20021;-61
2022/02/23 06:07:42;;;;;;;23.83;3.95;;;;;;;3.49;84.03;102575.13;5049841;28;20041;-63
2022/02/23 06:10:08;;;;;;;19.33;3.38;;;;;;;3.51;84.67;102570.84;5049873;28;20025;-62
2022/02/23 06:12:33;;;;;;;24.73;3.20;;;;;;;3.49;84.53;102569.06;5042393;28;20051;-62
2022/02/23 06:14:58;;;;;;;19.10;3.58;;;;;;;3.50;84.78;102570.81;5030115;28;20053;-61
2022/02/23 06:17:25;;;;;;;20.67;3.38;;;;;;;3.58;85.13;102568.41;5029152;28;20087;-61
2022/02/23 06:19:50;;;;;;;22.52;3.72;;;;;;;3.59;84.96;102563.22;5053975;28;20082;-62
2022/02/23 06:22:15;;;;;;;20.33;3.30;;;;;;;3.54;85.06;102560.50;5068413;28;20449;-63
2022/02/23 06:24:41;;;;;;;21.20;3.30;;;;;;;3.47;84.97;102565.53;5068992;28;20068;-61
2022/02/23 06:27:06;;;;;;;21.33;4.03;;;;;;;3.42;85.13;102565.41;5069546;28;20115;-61
2022/02/23 06:29:31;;;;;;;24.67;3.58;;;;;;;3.43;85.39;102563.69;5069830;28;20036;-62
2022/02/23 06:32:01;;;;;;;18.30;4.05;;;;;;;3.47;85.77;102557.72;5069372;28;20390;-60
2022/02/23 06:34:26;;;;;;;;;;;;;;;3.45;85.79;102568.09;5070069;28;20025;-61
2022/02/23 06:36:51;;;;;;;27.27;3.47;;;;;;;3.41;85.92;102568.88;5068930;28;19912;-61
2022/02/23 06:39:19;;;;;;;34.72;4.05;;;;;;;3.46;86.20;102574.19;5055798;28;20021;-61
2022/02/23 06:41:44;;;;;;;24.75;4.10;;;;;;;3.47;86.44;102579.44;5049464;28;20490;-62
2022/02/23 06:44:10;;;;;;;36.58;3.92;;;;;;;3.57;86.48;102580.53;5057889;28;20028;-62
2022/02/23 06:46:35;;;;;;;37.50;5.13;;;;;;;3.60;86.75;102582.31;5067832;28;20096;-63
2022/02/23 06:49:00;;;;;;;41.55;4.85;;;;;;;3.61;86.67;102582.38;5068030;28;20028;-62
2022/02/23 06:51:26;;;;;;;28.35;3.42;;;;;;;3.65;86.11;102584.19;5064589;28;20033;-62
2022/02/23 06:53:51;;;;;;;24.42;3.42;;;;;;;3.65;86.26;102578.13;5060317;28;20051;-63
2022/02/23 06:56:17;;;;;;;21.23;3.17;;;;;;;3.63;86.15;102579.78;5059510;28;20029;-62
2022/02/23 06:58:48;;;;;;;31.05;3.33;;;;;;;3.63;86.54;102574.59;5058363;28;20428;-62
2022/02/23 07:01:16;;;;;;;25.75;3.40;;;;;;;3.68;86.72;102578.19;5056915;28;20357;-62
2022/02/23 07:03:41;;;;;;;28.48;4.07;;;;;;;3.75;87.04;102573.97;5052764;28;20045;-63
2022/02/23 07:06:07;;;;;;;27.63;3.30;;;;;;;3.70;86.74;102573.88;5047707;28;20471;-63
2022/02/23 07:08:32;;;;;;;23.85;3.28;;;;;;;3.67;86.53;102571.19;5048113;28;20016;-63
2022/02/23 07:10:57;;;;;;;21.67;3.58;;;;;;;3.69;86.63;102571.22;5047958;28;20017;-62
2022/02/23 07:13:23;;;;;;;37.72;4.15;;;;;;;3.73;86.93;102570.47;5048462;28;20025;-62
2022/02/23 07:15:48;;;;;;;23.50;3.72;;;;;;;3.77;87.22;102578.38;5048387;28;20480;-61
2022/02/23 07:18:13;;;;;;;29.75;4.25;;;;;;;3.86;87.25;102576.84;5051212;28;20020;-62
2022/02/23 07:20:39;;;;;;;42.50;4.03;;;;;;;3.93;87.25;102576.13;5058863;28;20028;-61
2022/02/23 07:23:04;;;;;;;34.20;4.30;;;;;;;3.99;87.08;102580.59;5058149;28;20030;-64
2022/02/23 07:25:30;;;;;;;17.13;3.05;;;;;;;4.03;86.90;102585.91;5065479;28;20025;-65
2022/02/23 07:27:55;;;;;;;22.17;3.47;;;;;;;4.10;86.92;102580.84;5067394;28;20035;-60
2022/02/23 07:30:20;;;;;;;26.02;3.42;;;;;;;4.13;87.11;102580.91;5068191;28;20043;-58
2022/02/23 07:32:46;;;;;;;21.30;3.50;;;;;;;4.21;86.74;102587.16;5068297;28;20032;-57
2022/02/23 07:35:13;;;;;;;30.88;4.88;;;;;;;4.27;86.79;102584.66;5069051;28;20024;-56
2022/02/23 07:37:43;;;;;;;23.92;4.40;;;;;;;4.36;86.56;102580.50;5067972;28;20433;-56
2022/02/23 07:40:11;;;;;;;29.40;4.32;;;;;;;4.47;86.17;102591.13;5068252;28;20023;-57
2022/02/23 07:42:37;;;;;;;31.27;4.38;;;;;;;4.57;85.79;102587.00;5068085;28;20036;-56
2022/02/23 07:45:03;;;;;;;24.17;4.22;;;;;;;4.62;85.48;102591.47;5068136;28;20047;-55
2022/02/23 07:47:28;;;;;;;28.23;4.30;;;;;;;4.71;84.93;102584.63;5068488;28;20485;-56
2022/02/23 07:49:54;;;;;;;31.25;3.92;;;;;;;4.77;84.84;102593.47;5068317;28;20028;-61
2022/02/23 07:52:20;;;;;;;30.02;4.63;;;;;;;4.82;84.43;102585.72;5049716;28;20025;-58
2022/02/23 07:54:46;;;;;;;21.77;4.07;;;;;;;4.86;84.39;102592.78;5063861;28;20040;-56
2022/02/23 07:57:11;;;;;;;37.50;4.50;;;;;;;4.92;84.18;102587.66;5066444;28;20543;-57
2022/02/23 07:59:36;;;;;;;27.13;4.85;;;;;;;5.01;83.88;102586.06;5068117;28;20056;-59
2022/02/23 08:02:03;;;;;;;36.35;5.47;;;;;;;5.08;83.56;102587.06;5067471;28;20398;-57
2022/02/23 08:04:28;;;;;;;16.92;4.20;;;;;;;5.11;83.29;102589.69;5065969;28;20414;-56
2022/02/23 08:06:55;;;;;;;25.55;5.43;;;;;;;5.17;83.27;102593.31;5066954;28;20025;-57
2022/02/23 08:09:20;;;;;;;17.63;4.15;;;;;;;5.18;83.00;102591.59;5066279;28;20028;-55
2022/02/23 08:11:45;;;;;;;27.00;5.05;;;;;;;5.23;82.70;102595.13;5067538;28;20115;-57
2022/02/23 08:14:11;;;;;;;23.63;4.63;;;;;;;5.27;82.42;102602.16;5067129;28;20116;-59
2022/02/23 08:19:39;;;;;;;18.73;3.95;;;;;;;5.36;82.50;102593.59;5065808;28;20467;-56
2022/02/23 08:22:10;;;;;;;25.52;4.53;;;;;;;5.40;82.28;102591.94;5066715;28;20040;-57
2022/02/23 08:24:39;;;;;;;34.05;4.82;;;;;;;5.45;82.06;102585.06;5066492;28;20025;-57
2022/02/23 08:27:06;;;;;;;21.60;3.40;;;;;;;5.52;82.14;102588.63;5067409;28;20135;-59
2022/02/23 08:29:31;;;;;;;19.52;4.70;;;;;;;5.61;82.08;102587.88;5067369;28;20532;-56
2022/02/23 08:31:57;;;;;;;27.20;4.18;;;;;;;5.69;81.83;102583.66;5067344;28;20028;-56
2022/02/23 08:34:23;;;;;;;18.88;3.63;;;;;;;5.79;81.46;102582.06;5067627;28;20016;-55
2022/02/23 08:36:49;;;;;;;21.83;3.85;;;;;;;5.90;81.07;102583.06;5048531;28;20082;-62
2022/02/23 08:39:17;;;;;;;25.08;4.15;;;;;;;6.02;80.57;102578.88;5061470;28;20041;-64
2022/02/23 08:41:44;;;;;;;20.00;4.07;;;;;;;6.13;79.93;102579.03;5047780;28;20475;-61
2022/02/23 08:44:10;;;;;;;22.95;4.80;;;;;;;6.24;79.47;102579.19;5048235;28;20428;-61
2022/02/23 08:46:39;;;;;;;15.73;3.58;;;;;;;6.31;78.83;102579.28;5047662;28;20029;-62
2022/02/23 08:49:08;;;;;;;22.25;4.15;;;;;;;6.41;78.30;102582.88;5049332;28;20064;-62
2022/02/23 08:51:35;;;;;;;23.17;3.70;;;;;;;6.48;78.24;102586.47;5059481;28;20489;-60
2022/02/23 08:54:01;;;;;;;23.33;4.00;;;;;;;6.58;77.45;102587.44;5055853;28;20434;-60
2022/02/23 08:56:26;;;;;;;27.52;4.72;;;;;;;6.64;77.32;102584.88;5054554;28;20078;-60
2022/02/23 08:58:52;;;;;;;19.77;3.33;;;;;;;6.75;76.62;102584.13;5057294;28;20488;-62
2022/02/23 09:01:17;;;;;;;25.75;4.20;;;;;;;6.88;76.62;102590.34;5053260;28;20467;-61
2022/02/23 09:03:43;;;;;;;21.23;4.13;;;;;;;6.95;76.28;102589.53;5050370;28;20044;-62
2022/02/23 09:06:09;;;;;;;26.30;4.55;;;;;;;7.00;76.23;102589.59;5054479;28;20020;-61
2022/02/23 09:08:34;;;;;;;19.88;3.25;;;;;;;7.04;75.37;102593.97;5057698;28;20474;-62
2022/02/23 09:10:59;;;;;;;25.70;4.72;;;;;;;7.07;75.69;102588.78;5052005;28;20037;-66
2022/02/23 09:13:25;;;;;;;16.45;3.65;;;;;;;7.15;75.63;102584.50;5048038;28;20029;-63
2022/02/23 09:15:50;;;;;;;23.08;4.25;;;;;;;7.18;75.41;102594.13;5049681;28;20053;-61
2022/02/23 09:18:15;;;;;;;16.58;4.07;;;;;;;7.18;75.48;102589.75;5049863;28;20029;-63
2022/02/23 09:20:41;;;;;;;20.15;4.03;;;;;;;7.26;74.88;102596.81;5050367;28;20120;-63
2022/02/23 09:23:06;;;;;;;15.82;3.42;;;;;;;7.28;74.68;102584.56;5050448;28;20086;-63
2022/02/23 09:25:32;;;;;;;26.60;5.13;;;;;;;7.33;74.81;102573.28;5051098;28;20630;-62
2022/02/23 09:27:57;;;;;;;21.48;3.85;;;;;;;7.31;74.55;102585.50;5049167;28;20044;-62
2022/02/23 09:30:22;;;;;;;15.52;3.42;;;;;;;7.34;74.80;102587.25;5050471;28;20108;-62
2022/02/23 09:32:49;;;;;;;24.92;4.35;;;;;;;7.34;74.71;102595.13;5050415;28;20479;-62
2022/02/23 09:35:16;;;;;;;23.88;4.32;;;;;;;7.39;75.00;102596.06;5050022;28;20021;-62
2022/02/23 09:37:41;;;;;;;24.60;4.25;;;;;;;7.64;75.02;102592.69;5049860;28;20057;-61
2022/02/23 09:40:07;;;;;;;18.73;4.22;;;;;;;7.78;73.80;102590.19;5049120;28;20076;-67
2022/02/23 09:42:32;;;;;;;23.48;3.80;;;;;;;7.76;72.86;102590.16;5032281;28;20494;-64
2022/02/23 09:45:03;;;;;;;18.52;3.45;;;;;;;7.78;73.46;102590.19;5048547;28;20036;-63
2022/02/23 09:47:32;;;;;;;24.52;4.40;;;;;;;7.75;73.12;102591.06;5050325;28;20470;-63
2022/02/23 09:50:02;;;;;;;16.33;3.70;;;;;;;7.66;73.40;102583.09;5050124;28;20279;-63
2022/02/23 09:52:27;;;;;;;22.55;4.13;;;;;;;7.73;73.23;102582.28;5049715;28;20029;-63
2022/02/23 09:54:57;;;;;;;20.67;4.10;;;;;;;7.76;72.93;102581.41;5049021;28;20475;-63
2022/02/23 09:57:23;;;;;;;20.02;4.25;;;;;;;7.83;72.61;102581.47;5050463;28;20033;-63
2022/02/23 09:59:49;;;;;;;25.48;4.40;;;;;;;7.89;72.64;102582.38;5050298;28;20478;-64
2022/02/23 10:02:15;;;;;;;30.80;6.07;;;;;;;7.98;72.33;102574.56;5050309;28;20029;-65
2022/02/23 10:04:41;;;;;;;20.67;4.75;;;;;;;7.94;72.67;102588.50;5050449;28;20052;-63
2022/02/23 10:07:07;;;;;;;19.08;4.38;;;;;;;7.99;72.06;102585.91;5045575;28;20025;-64
2022/02/23 10:09:52;;;;;;;19.90;4.55;;;;;;;8.06;71.91;102596.47;5030193;28;20101;-64
2022/02/23 10:12:19;;;;;;;24.77;4.22;;;;;;;8.15;71.74;102586.88;5028909;28;20029;-65
2022/02/23 10:14:45;;;;;;;19.90;3.50;;;;;;;8.19;72.00;102588.66;5045293;28;20029;-66
2022/02/23 10:17:11;;;;;;;19.38;4.70;;;;;;;8.29;71.41;102586.94;5030634;28;20022;-66
2022/02/23 10:19:47;;;;;;;24.58;4.53;;;;;;;8.24;71.72;102589.53;5024909;28;20437;-62
2022/02/23 10:22:12;;;;;;;17.88;3.95;;;;;;;8.32;71.31;102584.31;5024392;28;20123;-62
2022/02/23 10:24:38;;;;;;;15.10;4.47;;;;;;;8.28;71.95;102588.66;5029201;28;20459;-62
2022/02/23 10:27:12;;;;;;;23.20;5.15;;;;;;;8.38;70.96;102589.59;5027745;28;20033;-62
2022/02/23 10:29:53;;;;;;;15.40;3.78;;;;;;;8.49;70.33;102594.00;5029471;28;20593;-62
2022/02/23 10:32:19;;;;;;;13.70;3.55;;;;;;;8.51;70.26;102587.00;5028031;28;20474;-64
2022/02/23 10:34:56;;;;;;;17.23;3.45;;;;;;;8.52;69.04;102584.38;5026829;28;20067;-61
2022/02/23 10:37:23;;;;;;;13.40;2.97;;;;;;;8.65;69.20;102581.81;5029576;28;20021;-64
2022/02/23 10:39:53;;;;;;;29.65;4.03;;;;;;;8.69;68.84;102583.56;5029147;28;20086;-63
2022/02/23 10:42:26;;;;;;;22.50;4.15;;;;;;;8.74;68.63;102584.47;5028681;28;20052;-62
2022/02/23 10:44:53;;;;;;;15.65;3.45;;;;;;;8.85;68.73;102584.47;5027823;28;20037;-64
2022/02/23 10:47:28;;;;;;;20.83;4.63;;;;;;;8.90;68.38;102579.22;5029160;28;20025;-64
2022/02/23 10:50:16;;;;;;;17.92;3.90;;;;;;;8.98;68.53;102575.72;5026827;28;20372;-63
2022/02/23 10:52:52;;;;;;;24.00;4.80;;;;;;;9.04;67.39;102582.75;5033325;28;20025;-64
2022/02/23 10:55:22;;;;;;;19.52;3.90;;;;;;;9.13;66.17;102576.63;5049384;28;20350;-64
2022/02/23 10:57:56;;;;;;;16.55;3.28;;;;;;;9.15;65.45;102566.97;5049025;28;20021;-64
2022/02/23 11:00:31;;;;;;;14.18;3.50;;;;;;;9.25;65.97;102573.13;5049303;28;20099;-64
2022/02/23 11:02:57;;;;;;;16.33;3.17;;;;;;;9.51;67.41;102564.31;5051476;28;20036;-64
2022/02/23 11:05:24;;;;;;;16.15;4.38;;;;;;;9.63;65.14;102562.56;5055764;28;20140;-64
2022/02/23 11:07:52;;;;;;;18.98;3.47;;;;;;;9.66;64.41;102567.81;5048760;28;20024;-60
2022/02/23 11:10:18;;;;;;;11.75;2.92;;;;;;;9.74;64.80;102573.91;5049074;28;20108;-61
2022/02/23 11:12:45;;;;;;;10.27;2.40;;;;;;;9.67;63.15;102569.56;5047804;28;20480;-60
2022/02/23 11:15:21;;;;;;;8.25;2.30;;;;;;;9.63;62.29;102570.44;5049299;28;20451;-60
2022/02/23 11:17:48;;;;;;;10.55;2.42;;;;;;;9.63;61.22;102559.91;5050097;28;20364;-62
2022/02/23 11:20:18;;;;;;;11.68;2.83;;;;;;;9.58;61.64;102562.56;5056807;28;20466;-61
2022/02/23 11:22:44;;;;;;;16.13;3.00;;;;;;;9.61;62.01;102555.50;5059402;28;20017;-62
2022/02/23 11:25:10;;;;;;;13.25;2.85;;;;;;;9.72;62.12;102554.59;5054667;28;20466;-62
2022/02/23 11:27:36;;;;;;;11.02;2.78;;;;;;;9.76;60.58;102552.84;5057073;28;20013;-62